Nichiryu Maru — JG5632 — position and weather

sailwx.info

Track history (hours):
 
Tides and Currents Weather Stations Pressure Air Temp Water Temp Dewpoint Dewpoint Depression Visibility Wind Speed Wind Dir Waves Ship Positions

Nichiryu Maru

Last reported at 2015-Jul-31 03:21 UTC. Time now 2015-Aug-02 08:22 UTC.
Position N 34°39' E 135°16'.

Length 158 m; draft 6.5 m.

Type: Cargo ship. MMSI: 43100939.

Date/timePositionNaut miles runAvg speedWind from/ knotsBaromVisibWave heightAir tempDewpointWater temp
2015-Jul-31 03:21N 34°39' E 135°16'3117.4
2015-Jul-31 01:33N 34°11' E 134°59'16516.2
2015-Jul-30 15:23N 34°20' E 138°19'5718.5
2015-Jul-30 12:18N 34°49' E 139°18'1418.9
2015-Jul-30 11:32N 34°57' E 139°32'1717.7
2015-Jul-30 10:33N 35°11' E 139°46'10 9.9
2015-Jul-30 09:33N 35°19' E 139°39'0 0.0
2015-Jul-30 08:32N 35°19' E 139°39'0 0.0
2015-Jul-30 07:32N 35°19' E 139°39'0 0.0
2015-Jul-30 06:32N 35°19' E 139°39'0 0.0
2015-Jul-30 05:32N 35°19' E 139°39'0 0.0
2015-Jul-30 04:32N 35°19' E 139°39'3 3.0
2015-Jul-30 03:33N 35°18' E 139°43'1211.7
2015-Jul-30 02:34N 35°07' E 139°45'1514.9
2015-Jul-30 01:33N 34°56' E 139°31'5616.7
2015-Jul-29 22:14N 34°29' E 138°33'  
2015-Jul-27 15:31N 34°21' E 138°24'5517.1
2015-Jul-27 12:20N 34°49' E 139°20'1316.3
2015-Jul-27 11:33N 34°58' E 139°32'1716.7
2015-Jul-27 10:33N 35°10' E 139°45'9 9.2
2015-Jul-27 09:33N 35°19' E 139°40'1 0.9
2015-Jul-27 08:31N 35°19' E 139°39'0 0.0
2015-Jul-27 07:31N 35°19' E 139°39'0 0.0
2015-Jul-27 06:31N 35°19' E 139°39'0 0.0
2015-Jul-27 05:28N 35°19' E 139°39'0 0.0
2015-Jul-27 04:28N 35°19' E 139°39'0 0.0
2015-Jul-27 03:31N 35°19' E 139°39'0 0.0
2015-Jul-27 02:28N 35°19' E 139°39'0 0.0
2015-Jul-27 01:28N 35°19' E 139°39'0 0.0
2015-Jul-27 00:28N 35°19' E 139°39'0 0.0
2015-Jul-26 23:28N 35°19' E 139°39'2 1.7
2015-Jul-26 22:27N 35°19' E 139°41'0 0.0
2015-Jul-26 21:33N 35°19' E 139°41'0 0.0
2015-Jul-26 20:30N 35°19' E 139°41'0 0.0
2015-Jul-26 19:33N 35°19' E 139°41'0 0.0
2015-Jul-26 18:33N 35°19' E 139°41'0 0.0
2015-Jul-26 17:33N 35°19' E 139°41'0 0.0
2015-Jul-26 16:33N 35°19' E 139°41'0 0.1
2015-Jul-26 15:33N 35°19' E 139°41'0 0.0
2015-Jul-26 14:33N 35°19' E 139°41'0 0.0
2015-Jul-26 13:34N 35°19' E 139°41'0 0.0
2015-Jul-26 12:33N 35°19' E 139°41'0 0.0
2015-Jul-26 11:33N 35°19' E 139°41'0 0.0
2015-Jul-26 10:34N 35°19' E 139°41'0 0.0
2015-Jul-26 09:33N 35°19' E 139°41'0 0.0
2015-Jul-26 08:30N 35°19' E 139°41'1 0.9
2015-Jul-26 07:34N 35°19' E 139°42'1111.3
2015-Jul-26 06:33N 35°08' E 139°44'2019.4
2015-Jul-26 05:33N 34°55' E 139°26'218 4.7
2015-Jul-24 07:33N 34°37' E 135°02'1010.6
2015-Jul-24 06:33N 34°41' E 135°14'0 0.2
2015-Jul-24 04:32N 34°41' E 135°13'1 0.7
2015-Jul-24 03:33N 34°40' E 135°14'1615.9
2015-Jul-24 02:34N 34°26' E 135°07'2019.4
2015-Jul-24 01:33N 34°07' E 135°00'22616.2
2015-Jul-23 11:33N 34°57' E 139°28'1818.3
2015-Jul-23 10:34N 35°09' E 139°45'1010.3
2015-Jul-23 09:33N 35°19' E 139°39'0 0.3
2015-Jul-23 08:29N 35°19' E 139°39'0 0.0
2015-Jul-23 07:32N 35°19' E 139°39'0 0.0
2015-Jul-23 06:32N 35°19' E 139°39'0 0.0
2015-Jul-23 05:32N 35°19' E 139°39'0 0.0
2015-Jul-23 04:32N 35°19' E 139°39'3 3.4
2015-Jul-23 03:34N 35°18' E 139°43'1211.7
2015-Jul-23 02:33N 35°07' E 139°44'1515.0
2015-Jul-23 01:31N 34°54' E 139°33'  
Track history (hours):
 
Tides and Currents Weather Stations Pressure Air Temp Water Temp Dewpoint Dewpoint Depression Visibility Wind Speed Wind Dir Waves Ship Positions

Nichiryu Maru

Last reported at 2015-Jul-31 03:21 UTC. Time now 2015-Aug-02 08:22 UTC.
Position N 34°39' E 135°16'.

Length 158 m; draft 6.5 m.

Type: Cargo ship. MMSI: 43100939.

Date/timePositionNaut miles runAvg speedWind from/ knotsBaromVisibWave heightAir tempDewpointWater temp
2015-Jul-31 03:21N 34°39' E 135°16'3117.4
2015-Jul-31 01:33N 34°11' E 134°59'16516.2
2015-Jul-30 15:23N 34°20' E 138°19'5718.5
2015-Jul-30 12:18N 34°49' E 139°18'1418.9
2015-Jul-30 11:32N 34°57' E 139°32'1717.7
2015-Jul-30 10:33N 35°11' E 139°46'10 9.9
2015-Jul-30 09:33N 35°19' E 139°39'0 0.0
2015-Jul-30 08:32N 35°19' E 139°39'0 0.0
2015-Jul-30 07:32N 35°19' E 139°39'0 0.0
2015-Jul-30 06:32N 35°19' E 139°39'0 0.0
2015-Jul-30 05:32N 35°19' E 139°39'0 0.0
2015-Jul-30 04:32N 35°19' E 139°39'3 3.0
2015-Jul-30 03:33N 35°18' E 139°43'1211.7
2015-Jul-30 02:34N 35°07' E 139°45'1514.9
2015-Jul-30 01:33N 34°56' E 139°31'5616.7
2015-Jul-29 22:14N 34°29' E 138°33'  
2015-Jul-27 15:31N 34°21' E 138°24'5517.1
2015-Jul-27 12:20N 34°49' E 139°20'1316.3
2015-Jul-27 11:33N 34°58' E 139°32'1716.7
2015-Jul-27 10:33N 35°10' E 139°45'9 9.2
2015-Jul-27 09:33N 35°19' E 139°40'1 0.9
2015-Jul-27 08:31N 35°19' E 139°39'0 0.0
2015-Jul-27 07:31N 35°19' E 139°39'0 0.0
2015-Jul-27 06:31N 35°19' E 139°39'0 0.0
2015-Jul-27 05:28N 35°19' E 139°39'0 0.0
2015-Jul-27 04:28N 35°19' E 139°39'0 0.0
2015-Jul-27 03:31N 35°19' E 139°39'0 0.0
2015-Jul-27 02:28N 35°19' E 139°39'0 0.0
2015-Jul-27 01:28N 35°19' E 139°39'0 0.0
2015-Jul-27 00:28N 35°19' E 139°39'0 0.0
2015-Jul-26 23:28N 35°19' E 139°39'2 1.7
2015-Jul-26 22:27N 35°19' E 139°41'0 0.0
2015-Jul-26 21:33N 35°19' E 139°41'0 0.0
2015-Jul-26 20:30N 35°19' E 139°41'0 0.0
2015-Jul-26 19:33N 35°19' E 139°41'0 0.0
2015-Jul-26 18:33N 35°19' E 139°41'0 0.0
2015-Jul-26 17:33N 35°19' E 139°41'0 0.0
2015-Jul-26 16:33N 35°19' E 139°41'0 0.1
2015-Jul-26 15:33N 35°19' E 139°41'0 0.0
2015-Jul-26 14:33N 35°19' E 139°41'0 0.0
2015-Jul-26 13:34N 35°19' E 139°41'0 0.0
2015-Jul-26 12:33N 35°19' E 139°41'0 0.0
2015-Jul-26 11:33N 35°19' E 139°41'0 0.0
2015-Jul-26 10:34N 35°19' E 139°41'0 0.0
2015-Jul-26 09:33N 35°19' E 139°41'0 0.0
2015-Jul-26 08:30N 35°19' E 139°41'1 0.9
2015-Jul-26 07:34N 35°19' E 139°42'1111.3
2015-Jul-26 06:33N 35°08' E 139°44'2019.4
2015-Jul-26 05:33N 34°55' E 139°26'218 4.7
2015-Jul-24 07:33N 34°37' E 135°02'1010.6
2015-Jul-24 06:33N 34°41' E 135°14'0 0.2
2015-Jul-24 04:32N 34°41' E 135°13'1 0.7
2015-Jul-24 03:33N 34°40' E 135°14'1615.9
2015-Jul-24 02:34N 34°26' E 135°07'2019.4
2015-Jul-24 01:33N 34°07' E 135°00'22616.2
2015-Jul-23 11:33N 34°57' E 139°28'1818.3
2015-Jul-23 10:34N 35°09' E 139°45'1010.3
2015-Jul-23 09:33N 35°19' E 139°39'0 0.3
2015-Jul-23 08:29N 35°19' E 139°39'0 0.0
2015-Jul-23 07:32N 35°19' E 139°39'0 0.0
2015-Jul-23 06:32N 35°19' E 139°39'0 0.0
2015-Jul-23 05:32N 35°19' E 139°39'0 0.0
2015-Jul-23 04:32N 35°19' E 139°39'3 3.4
2015-Jul-23 03:34N 35°18' E 139°43'1211.7
2015-Jul-23 02:33N 35°07' E 139°44'1515.0
2015-Jul-23 01:31N 34°54' E 139°33'  

Dump ship's entire track history